sensor_id;sensor_type;location;lat;lon;timestamp;temperature;humidity
64855;DHT22;51321;50.428;8.378;2024-03-08T00:00:17;2.30;99.90
64855;DHT22;51321;50.428;8.378;2024-03-08T00:02:58;2.30;99.90
64855;DHT22;51321;50.428;8.378;2024-03-08T00:05:40;2.20;99.90
64855;DHT22;51321;50.428;8.378;2024-03-08T00:08:20;2.00;99.90
64855;DHT22;51321;50.428;8.378;2024-03-08T00:11:00;1.90;99.90
64855;DHT22;51321;50.428;8.378;2024-03-08T00:13:41;2.00;99.90
64855;DHT22;51321;50.428;8.378;2024-03-08T00:16:25;1.90;99.90
64855;DHT22;51321;50.428;8.378;2024-03-08T00:19:06;1.70;99.90
64855;DHT22;51321;50.428;8.378;2024-03-08T00:21:47;1.60;99.90
64855;DHT22;51321;50.428;8.378;2024-03-08T00:24:28;1.60;99.90
64855;DHT22;51321;50.428;8.378;2024-03-08T00:27:10;1.50;99.90
64855;DHT22;51321;50.428;8.378;2024-03-08T00:29:51;1.40;99.90
64855;DHT22;51321;50.428;8.378;2024-03-08T00:32:33;1.40;99.90
64855;DHT22;51321;50.428;8.378;2024-03-08T00:35:15;1.50;99.90
64855;DHT22;51321;50.428;8.378;2024-03-08T00:37:56;1.50;99.90
64855;DHT22;51321;50.428;8.378;2024-03-08T00:40:38;1.30;99.90
64855;DHT22;51321;50.428;8.378;2024-03-08T00:43:19;1.30;99.90
64855;DHT22;51321;50.428;8.378;2024-03-08T00:45:59;1.40;99.90
64855;DHT22;51321;50.428;8.378;2024-03-08T00:48:41;1.20;99.90
64855;DHT22;51321;50.428;8.378;2024-03-08T00:51:22;1.30;99.90
64855;DHT22;51321;50.428;8.378;2024-03-08T00:54:03;1.30;99.90
64855;DHT22;51321;50.428;8.378;2024-03-08T00:56:43;1.30;99.90
64855;DHT22;51321;50.428;8.378;2024-03-08T00:59:25;1.40;99.90
64855;DHT22;51321;50.428;8.378;2024-03-08T01:02:06;1.40;99.90
64855;DHT22;51321;50.428;8.378;2024-03-08T01:04:50;1.30;99.90
64855;DHT22;51321;50.428;8.378;2024-03-08T01:07:30;1.30;99.90
64855;DHT22;51321;50.428;8.378;2024-03-08T01:10:11;1.30;99.90
64855;DHT22;51321;50.428;8.378;2024-03-08T01:12:52;1.20;99.90
64855;DHT22;51321;50.428;8.378;2024-03-08T01:15:33;1.30;99.90
64855;DHT22;51321;50.428;8.378;2024-03-08T01:18:14;1.50;99.90
64855;DHT22;51321;50.428;8.378;2024-03-08T01:20:57;1.40;99.90
64855;DHT22;51321;50.428;8.378;2024-03-08T01:23:37;1.40;99.90
64855;DHT22;51321;50.428;8.378;2024-03-08T01:26:18;1.30;99.90
64855;DHT22;51321;50.428;8.378;2024-03-08T01:28:58;1.20;99.90
64855;DHT22;51321;50.428;8.378;2024-03-08T01:31:39;1.20;99.90
64855;DHT22;51321;50.428;8.378;2024-03-08T01:34:20;1.10;99.90
64855;DHT22;51321;50.428;8.378;2024-03-08T01:37:02;1.20;99.90
64855;DHT22;51321;50.428;8.378;2024-03-08T01:39:42;1.20;99.90
64855;DHT22;51321;50.428;8.378;2024-03-08T01:42:23;1.30;99.90
64855;DHT22;51321;50.428;8.378;2024-03-08T01:45:05;1.30;99.90
64855;DHT22;51321;50.428;8.378;2024-03-08T01:47:45;1.30;99.90
64855;DHT22;51321;50.428;8.378;2024-03-08T01:50:27;1.20;99.90
64855;DHT22;51321;50.428;8.378;2024-03-08T01:53:10;1.20;99.90
64855;DHT22;51321;50.428;8.378;2024-03-08T01:55:52;1.20;99.90
64855;DHT22;51321;50.428;8.378;2024-03-08T01:58:33;1.20;99.90
64855;DHT22;51321;50.428;8.378;2024-03-08T02:01:15;1.20;99.90
64855;DHT22;51321;50.428;8.378;2024-03-08T02:03:56;1.10;99.90
64855;DHT22;51321;50.428;8.378;2024-03-08T02:06:36;0.90;99.90
64855;DHT22;51321;50.428;8.378;2024-03-08T02:09:19;0.80;99.90
64855;DHT22;51321;50.428;8.378;2024-03-08T02:11:59;0.70;99.90
64855;DHT22;51321;50.428;8.378;2024-03-08T02:14:45;0.80;99.90
64855;DHT22;51321;50.428;8.378;2024-03-08T02:17:26;0.90;99.90
64855;DHT22;51321;50.428;8.378;2024-03-08T02:20:07;1.00;99.90
64855;DHT22;51321;50.428;8.378;2024-03-08T02:22:50;1.10;99.90
64855;DHT22;51321;50.428;8.378;2024-03-08T02:25:31;1.20;99.90
64855;DHT22;51321;50.428;8.378;2024-03-08T02:28:12;1.10;99.90
64855;DHT22;51321;50.428;8.378;2024-03-08T02:30:52;1.10;99.90
64855;DHT22;51321;50.428;8.378;2024-03-08T02:33:34;1.10;99.90
64855;DHT22;51321;50.428;8.378;2024-03-08T02:36:15;0.90;99.90
64855;DHT22;51321;50.428;8.378;2024-03-08T02:38:57;0.80;99.90
64855;DHT22;51321;50.428;8.378;2024-03-08T02:41:38;0.80;99.90
64855;DHT22;51321;50.428;8.378;2024-03-08T02:44:19;0.70;99.90
64855;DHT22;51321;50.428;8.378;2024-03-08T02:47:01;0.70;99.90
64855;DHT22;51321;50.428;8.378;2024-03-08T02:49:41;0.80;99.90
64855;DHT22;51321;50.428;8.378;2024-03-08T02:52:21;0.80;99.90
64855;DHT22;51321;50.428;8.378;2024-03-08T02:55:04;0.80;99.90
64855;DHT22;51321;50.428;8.378;2024-03-08T02:57:45;0.80;99.90
64855;DHT22;51321;50.428;8.378;2024-03-08T03:00:26;0.80;99.90
64855;DHT22;51321;50.428;8.378;2024-03-08T03:03:06;0.60;99.90
64855;DHT22;51321;50.428;8.378;2024-03-08T03:05:47;0.50;99.90
64855;DHT22;51321;50.428;8.378;2024-03-08T03:08:29;0.40;99.90
64855;DHT22;51321;50.428;8.378;2024-03-08T03:11:11;0.30;99.90
64855;DHT22;51321;50.428;8.378;2024-03-08T03:13:52;0.40;99.90
64855;DHT22;51321;50.428;8.378;2024-03-08T03:16:34;0.40;99.90
64855;DHT22;51321;50.428;8.378;2024-03-08T03:19:15;0.40;99.90
64855;DHT22;51321;50.428;8.378;2024-03-08T03:21:55;0.40;99.90
64855;DHT22;51321;50.428;8.378;2024-03-08T03:24:36;0.50;99.90
64855;DHT22;51321;50.428;8.378;2024-03-08T03:27:19;0.50;99.90
64855;DHT22;51321;50.428;8.378;2024-03-08T03:30:00;0.40;99.90
64855;DHT22;51321;50.428;8.378;2024-03-08T03:33:00;0.40;99.90
64855;DHT22;51321;50.428;8.378;2024-03-08T03:35:41;0.30;99.90
64855;DHT22;51321;50.428;8.378;2024-03-08T03:38:23;0.40;99.90
64855;DHT22;51321;50.428;8.378;2024-03-08T03:41:05;0.40;99.90
64855;DHT22;51321;50.428;8.378;2024-03-08T03:43:50;0.30;99.90
64855;DHT22;51321;50.428;8.378;2024-03-08T03:46:31;0.30;99.90
64855;DHT22;51321;50.428;8.378;2024-03-08T03:49:12;0.30;99.90
64855;DHT22;51321;50.428;8.378;2024-03-08T03:51:53;0.30;99.90
64855;DHT22;51321;50.428;8.378;2024-03-08T03:54:34;0.40;99.90
64855;DHT22;51321;50.428;8.378;2024-03-08T03:57:15;0.40;99.90
64855;DHT22;51321;50.428;8.378;2024-03-08T03:59:57;0.40;99.90
64855;DHT22;51321;50.428;8.378;2024-03-08T04:02:37;0.30;99.90
64855;DHT22;51321;50.428;8.378;2024-03-08T04:05:18;0.30;99.90
64855;DHT22;51321;50.428;8.378;2024-03-08T04:07:58;0.30;99.90
64855;DHT22;51321;50.428;8.378;2024-03-08T04:10:42;0.20;99.90
64855;DHT22;51321;50.428;8.378;2024-03-08T04:13:22;0.20;99.90
64855;DHT22;51321;50.428;8.378;2024-03-08T04:16:05;0.10;99.90
64855;DHT22;51321;50.428;8.378;2024-03-08T04:18:47;0.10;99.90
64855;DHT22;51321;50.428;8.378;2024-03-08T04:21:30;0.10;99.90
64855;DHT22;51321;50.428;8.378;2024-03-08T04:24:10;0.00;99.90
64855;DHT22;51321;50.428;8.378;2024-03-08T04:26:51;-0.10;99.90
64855;DHT22;51321;50.428;8.378;2024-03-08T04:29:32;0.00;99.90
64855;DHT22;51321;50.428;8.378;2024-03-08T04:32:15;-0.10;99.90
64855;DHT22;51321;50.428;8.378;2024-03-08T04:34:55;-0.10;99.90
64855;DHT22;51321;50.428;8.378;2024-03-08T04:37:36;-0.10;99.90
64855;DHT22;51321;50.428;8.378;2024-03-08T04:40:17;0.00;99.90
64855;DHT22;51321;50.428;8.378;2024-03-08T04:42:58;0.00;99.90
64855;DHT22;51321;50.428;8.378;2024-03-08T04:45:39;0.00;99.90
64855;DHT22;51321;50.428;8.378;2024-03-08T04:48:24;0.00;99.90
64855;DHT22;51321;50.428;8.378;2024-03-08T04:51:05;-0.10;99.90
64855;DHT22;51321;50.428;8.378;2024-03-08T04:53:46;-0.10;99.90
64855;DHT22;51321;50.428;8.378;2024-03-08T04:56:27;-0.30;99.90
64855;DHT22;51321;50.428;8.378;2024-03-08T04:59:07;-0.30;99.90
64855;DHT22;51321;50.428;8.378;2024-03-08T05:01:48;-0.20;99.90
64855;DHT22;51321;50.428;8.378;2024-03-08T05:04:30;-0.40;99.90
64855;DHT22;51321;50.428;8.378;2024-03-08T05:07:10;-0.40;99.90
64855;DHT22;51321;50.428;8.378;2024-03-08T05:09:51;-0.50;99.90
64855;DHT22;51321;50.428;8.378;2024-03-08T05:12:32;-0.30;99.90
64855;DHT22;51321;50.428;8.378;2024-03-08T05:15:12;-0.30;99.90
64855;DHT22;51321;50.428;8.378;2024-03-08T05:17:54;-0.20;99.90
64855;DHT22;51321;50.428;8.378;2024-03-08T05:20:36;-0.20;99.90
64855;DHT22;51321;50.428;8.378;2024-03-08T05:23:17;-0.30;99.90
64855;DHT22;51321;50.428;8.378;2024-03-08T05:26:02;-0.40;99.90
64855;DHT22;51321;50.428;8.378;2024-03-08T05:28:42;-0.40;99.90
64855;DHT22;51321;50.428;8.378;2024-03-08T05:31:23;-0.50;99.90
64855;DHT22;51321;50.428;8.378;2024-03-08T05:34:04;-0.50;99.90
64855;DHT22;51321;50.428;8.378;2024-03-08T05:36:50;-0.50;99.90
64855;DHT22;51321;50.428;8.378;2024-03-08T05:39:31;-0.50;99.90
64855;DHT22;51321;50.428;8.378;2024-03-08T05:42:11;-0.50;99.90
64855;DHT22;51321;50.428;8.378;2024-03-08T05:44:54;-0.50;99.90
64855;DHT22;51321;50.428;8.378;2024-03-08T05:47:39;-0.70;99.90
64855;DHT22;51321;50.428;8.378;2024-03-08T05:50:19;-0.70;99.90
64855;DHT22;51321;50.428;8.378;2024-03-08T05:53:02;-0.70;99.90
64855;DHT22;51321;50.428;8.378;2024-03-08T05:55:42;-0.70;99.90
64855;DHT22;51321;50.428;8.378;2024-03-08T05:58:22;-0.80;99.90
64855;DHT22;51321;50.428;8.378;2024-03-08T06:01:03;-0.90;99.90
64855;DHT22;51321;50.428;8.378;2024-03-08T06:03:47;-1.00;99.90
64855;DHT22;51321;50.428;8.378;2024-03-08T06:06:31;-0.80;99.90
64855;DHT22;51321;50.428;8.378;2024-03-08T06:09:13;-0.80;99.90
64855;DHT22;51321;50.428;8.378;2024-03-08T06:11:57;-0.80;99.90
64855;DHT22;51321;50.428;8.378;2024-03-08T06:14:38;-0.70;99.90
64855;DHT22;51321;50.428;8.378;2024-03-08T06:17:19;-0.60;99.90
64855;DHT22;51321;50.428;8.378;2024-03-08T06:19:59;-0.50;99.90
64855;DHT22;51321;50.428;8.378;2024-03-08T06:22:40;-0.50;99.90
64855;DHT22;51321;50.428;8.378;2024-03-08T06:25:22;-0.40;99.90
64855;DHT22;51321;50.428;8.378;2024-03-08T06:28:03;-0.30;99.90
64855;DHT22;51321;50.428;8.378;2024-03-08T06:30:44;-0.30;99.90
64855;DHT22;51321;50.428;8.378;2024-03-08T06:33:24;-0.30;99.90
64855;DHT22;51321;50.428;8.378;2024-03-08T06:36:06;-0.20;99.90
64855;DHT22;51321;50.428;8.378;2024-03-08T06:38:47;-0.20;99.90
64855;DHT22;51321;50.428;8.378;2024-03-08T06:41:29;-0.10;99.90
64855;DHT22;51321;50.428;8.378;2024-03-08T06:44:11;-0.10;99.90
64855;DHT22;51321;50.428;8.378;2024-03-08T06:46:51;0.00;99.90
64855;DHT22;51321;50.428;8.378;2024-03-08T06:49:32;0.00;99.90
64855;DHT22;51321;50.428;8.378;2024-03-08T06:52:12;0.00;99.90
64855;DHT22;51321;50.428;8.378;2024-03-08T06:54:53;0.00;99.90
64855;DHT22;51321;50.428;8.378;2024-03-08T06:57:35;0.00;99.90
64855;DHT22;51321;50.428;8.378;2024-03-08T07:00:16;0.20;99.90
64855;DHT22;51321;50.428;8.378;2024-03-08T07:03:00;0.30;99.90
64855;DHT22;51321;50.428;8.378;2024-03-08T07:05:40;0.40;99.90
64855;DHT22;51321;50.428;8.378;2024-03-08T07:08:21;0.60;99.90
64855;DHT22;51321;50.428;8.378;2024-03-08T07:11:02;0.50;99.90
64855;DHT22;51321;50.428;8.378;2024-03-08T07:13:44;0.60;99.90
64855;DHT22;51321;50.428;8.378;2024-03-08T07:16:25;0.60;99.90
64855;DHT22;51321;50.428;8.378;2024-03-08T07:19:06;0.70;99.90
64855;DHT22;51321;50.428;8.378;2024-03-08T07:21:46;0.90;99.90
64855;DHT22;51321;50.428;8.378;2024-03-08T07:24:27;0.90;99.90
64855;DHT22;51321;50.428;8.378;2024-03-08T07:27:18;1.10;99.90
64855;DHT22;51321;50.428;8.378;2024-03-08T07:30:00;1.10;99.90
64855;DHT22;51321;50.428;8.378;2024-03-08T07:32:41;1.40;99.90
64855;DHT22;51321;50.428;8.378;2024-03-08T07:35:23;1.70;99.90
64855;DHT22;51321;50.428;8.378;2024-03-08T07:38:08;2.10;99.90
64855;DHT22;51321;50.428;8.378;2024-03-08T07:40:51;2.40;99.90
64855;DHT22;51321;50.428;8.378;2024-03-08T07:43:31;2.70;99.90
64855;DHT22;51321;50.428;8.378;2024-03-08T07:46:14;3.00;99.90
64855;DHT22;51321;50.428;8.378;2024-03-08T07:48:57;3.40;99.90
64855;DHT22;51321;50.428;8.378;2024-03-08T07:51:38;3.70;99.90
64855;DHT22;51321;50.428;8.378;2024-03-08T07:54:19;3.90;99.90
64855;DHT22;51321;50.428;8.378;2024-03-08T07:57:00;4.10;99.90
64855;DHT22;51321;50.428;8.378;2024-03-08T07:59:42;4.30;99.90
64855;DHT22;51321;50.428;8.378;2024-03-08T08:02:24;4.50;99.90
64855;DHT22;51321;50.428;8.378;2024-03-08T08:05:05;4.70;99.90
64855;DHT22;51321;50.428;8.378;2024-03-08T08:07:46;4.90;99.90
64855;DHT22;51321;50.428;8.378;2024-03-08T08:10:26;5.00;99.90
64855;DHT22;51321;50.428;8.378;2024-03-08T08:13:07;5.00;99.90
64855;DHT22;51321;50.428;8.378;2024-03-08T08:15:48;5.20;99.90
64855;DHT22;51321;50.428;8.378;2024-03-08T08:18:30;5.10;99.90
64855;DHT22;51321;50.428;8.378;2024-03-08T08:21:12;5.20;99.90
64855;DHT22;51321;50.428;8.378;2024-03-08T08:23:52;5.40;99.90
64855;DHT22;51321;50.428;8.378;2024-03-08T08:26:33;5.40;99.90
64855;DHT22;51321;50.428;8.378;2024-03-08T08:29:15;5.60;99.90
64855;DHT22;51321;50.428;8.378;2024-03-08T08:31:57;5.80;99.90
64855;DHT22;51321;50.428;8.378;2024-03-08T08:34:40;5.90;99.90
64855;DHT22;51321;50.428;8.378;2024-03-08T08:37:21;6.20;99.90
64855;DHT22;51321;50.428;8.378;2024-03-08T08:40:04;6.40;99.90
64855;DHT22;51321;50.428;8.378;2024-03-08T08:42:49;6.40;99.90
64855;DHT22;51321;50.428;8.378;2024-03-08T08:45:30;6.50;99.90
64855;DHT22;51321;50.428;8.378;2024-03-08T08:48:10;6.30;99.90
64855;DHT22;51321;50.428;8.378;2024-03-08T08:50:52;6.40;99.90
64855;DHT22;51321;50.428;8.378;2024-03-08T08:53:32;6.50;99.90
64855;DHT22;51321;50.428;8.378;2024-03-08T08:56:14;6.60;99.90
64855;DHT22;51321;50.428;8.378;2024-03-08T08:58:55;6.60;99.90
64855;DHT22;51321;50.428;8.378;2024-03-08T09:01:37;6.60;99.90
64855;DHT22;51321;50.428;8.378;2024-03-08T09:04:17;6.90;99.90
64855;DHT22;51321;50.428;8.378;2024-03-08T09:07:00;6.90;99.90
64855;DHT22;51321;50.428;8.378;2024-03-08T09:09:42;6.90;99.90
64855;DHT22;51321;50.428;8.378;2024-03-08T09:12:23;6.80;99.90
64855;DHT22;51321;50.428;8.378;2024-03-08T09:15:04;6.60;99.90
64855;DHT22;51321;50.428;8.378;2024-03-08T09:17:47;7.00;99.90
64855;DHT22;51321;50.428;8.378;2024-03-08T09:20:28;7.40;99.90
64855;DHT22;51321;50.428;8.378;2024-03-08T09:23:12;7.70;99.90
64855;DHT22;51321;50.428;8.378;2024-03-08T09:25:53;7.90;99.90
64855;DHT22;51321;50.428;8.378;2024-03-08T09:28:34;7.70;99.90
64855;DHT22;51321;50.428;8.378;2024-03-08T09:31:15;7.90;99.80
64855;DHT22;51321;50.428;8.378;2024-03-08T09:33:55;7.90;99.80
64855;DHT22;51321;50.428;8.378;2024-03-08T09:36:36;7.80;99.40
64855;DHT22;51321;50.428;8.378;2024-03-08T09:39:18;7.90;99.80
64855;DHT22;51321;50.428;8.378;2024-03-08T09:42:00;7.80;98.90
64855;DHT22;51321;50.428;8.378;2024-03-08T09:44:44;7.80;99.60
64855;DHT22;51321;50.428;8.378;2024-03-08T09:47:25;7.90;99.50
64855;DHT22;51321;50.428;8.378;2024-03-08T09:50:12;8.10;99.70
64855;DHT22;51321;50.428;8.378;2024-03-08T09:52:55;8.20;99.40
64855;DHT22;51321;50.428;8.378;2024-03-08T09:55:38;8.20;99.00
64855;DHT22;51321;50.428;8.378;2024-03-08T09:58:21;8.20;98.70
64855;DHT22;51321;50.428;8.378;2024-03-08T10:01:16;8.30;98.70
64855;DHT22;51321;50.428;8.378;2024-03-08T10:03:57;8.40;98.40
64855;DHT22;51321;50.428;8.378;2024-03-08T10:06:38;8.60;97.50
64855;DHT22;51321;50.428;8.378;2024-03-08T10:09:19;8.90;97.20
64855;DHT22;51321;50.428;8.378;2024-03-08T10:12:02;8.60;97.60
64855;DHT22;51321;50.428;8.378;2024-03-08T10:14:43;8.50;98.00
64855;DHT22;51321;50.428;8.378;2024-03-08T10:17:24;8.40;98.20
64855;DHT22;51321;50.428;8.378;2024-03-08T10:20:13;8.40;97.80
64855;DHT22;51321;50.428;8.378;2024-03-08T10:22:55;8.40;98.20
64855;DHT22;51321;50.428;8.378;2024-03-08T10:25:38;8.60;98.30
64855;DHT22;51321;50.428;8.378;2024-03-08T10:28:20;8.90;97.10
64855;DHT22;51321;50.428;8.378;2024-03-08T10:31:01;8.90;97.60
64855;DHT22;51321;50.428;8.378;2024-03-08T10:33:43;9.00;96.70
64855;DHT22;51321;50.428;8.378;2024-03-08T10:36:24;9.00;97.00
64855;DHT22;51321;50.428;8.378;2024-03-08T10:39:12;8.90;96.00
64855;DHT22;51321;50.428;8.378;2024-03-08T10:41:57;8.70;96.40
64855;DHT22;51321;50.428;8.378;2024-03-08T10:44:49;8.90;96.70
64855;DHT22;51321;50.428;8.378;2024-03-08T10:47:38;9.20;96.20
64855;DHT22;51321;50.428;8.378;2024-03-08T10:50:20;9.40;95.80
64855;DHT22;51321;50.428;8.378;2024-03-08T10:53:01;9.60;95.10
64855;DHT22;51321;50.428;8.378;2024-03-08T10:55:44;9.50;95.10
64855;DHT22;51321;50.428;8.378;2024-03-08T10:58:27;9.50;95.40
64855;DHT22;51321;50.428;8.378;2024-03-08T11:01:09;9.60;94.90
64855;DHT22;51321;50.428;8.378;2024-03-08T11:03:51;9.70;94.90
64855;DHT22;51321;50.428;8.378;2024-03-08T11:06:42;9.70;94.80
64855;DHT22;51321;50.428;8.378;2024-03-08T11:09:28;10.10;94.00
64855;DHT22;51321;50.428;8.378;2024-03-08T11:12:20;9.90;93.90
64855;DHT22;51321;50.428;8.378;2024-03-08T11:15:01;9.70;94.90
64855;DHT22;51321;50.428;8.378;2024-03-08T11:17:48;9.60;94.10
64855;DHT22;51321;50.428;8.378;2024-03-08T11:20:29;9.70;94.80
64855;DHT22;51321;50.428;8.378;2024-03-08T11:23:11;10.00;95.00
64855;DHT22;51321;50.428;8.378;2024-03-08T11:25:52;10.10;94.00
64855;DHT22;51321;50.428;8.378;2024-03-08T11:28:33;10.20;94.30
64855;DHT22;51321;50.428;8.378;2024-03-08T11:31:25;10.40;94.00
64855;DHT22;51321;50.428;8.378;2024-03-08T11:34:15;10.50;94.00
64855;DHT22;51321;50.428;8.378;2024-03-08T11:36:59;10.10;93.60
64855;DHT22;51321;50.428;8.378;2024-03-08T11:39:40;10.20;93.00
64855;DHT22;51321;50.428;8.378;2024-03-08T11:42:20;9.70;93.50
64855;DHT22;51321;50.428;8.378;2024-03-08T11:45:08;9.70;94.30
64855;DHT22;51321;50.428;8.378;2024-03-08T11:47:50;10.00;94.50
64855;DHT22;51321;50.428;8.378;2024-03-08T11:50:34;9.80;93.70
64855;DHT22;51321;50.428;8.378;2024-03-08T11:53:15;9.70;94.20
64855;DHT22;51321;50.428;8.378;2024-03-08T11:56:06;9.60;94.00
64855;DHT22;51321;50.428;8.378;2024-03-08T11:58:53;9.50;93.90
64855;DHT22;51321;50.428;8.378;2024-03-08T12:01:36;9.60;94.80
64855;DHT22;51321;50.428;8.378;2024-03-08T12:04:16;9.30;94.20
64855;DHT22;51321;50.428;8.378;2024-03-08T12:07:00;9.40;94.20
64855;DHT22;51321;50.428;8.378;2024-03-08T12:10:15;9.70;94.10
64855;DHT22;51321;50.428;8.378;2024-03-08T12:12:58;9.50;94.00
64855;DHT22;51321;50.428;8.378;2024-03-08T12:15:39;9.70;93.80
64855;DHT22;51321;50.428;8.378;2024-03-08T12:18:21;10.20;93.60
64855;DHT22;51321;50.428;8.378;2024-03-08T12:21:05;10.40;93.30
64855;DHT22;51321;50.428;8.378;2024-03-08T12:23:48;10.50;93.60
64855;DHT22;51321;50.428;8.378;2024-03-08T12:26:42;10.70;92.50
64855;DHT22;51321;50.428;8.378;2024-03-08T12:29:24;10.80;92.40
64855;DHT22;51321;50.428;8.378;2024-03-08T12:32:07;10.90;91.80
64855;DHT22;51321;50.428;8.378;2024-03-08T12:34:52;10.70;92.10
64855;DHT22;51321;50.428;8.378;2024-03-08T12:37:33;10.40;92.10
64855;DHT22;51321;50.428;8.378;2024-03-08T12:40:16;9.90;92.80
64855;DHT22;51321;50.428;8.378;2024-03-08T12:42:56;10.00;93.20
64855;DHT22;51321;50.428;8.378;2024-03-08T12:45:37;10.20;92.70
64855;DHT22;51321;50.428;8.378;2024-03-08T12:48:18;10.10;92.80
64855;DHT22;51321;50.428;8.378;2024-03-08T12:51:00;9.70;92.80
64855;DHT22;51321;50.428;8.378;2024-03-08T12:53:41;9.70;93.00
64855;DHT22;51321;50.428;8.378;2024-03-08T12:56:30;9.90;93.10
64855;DHT22;51321;50.428;8.378;2024-03-08T12:59:15;10.30;93.20
64855;DHT22;51321;50.428;8.378;2024-03-08T13:01:56;10.50;92.60
64855;DHT22;51321;50.428;8.378;2024-03-08T13:04:39;10.60;92.30
64855;DHT22;51321;50.428;8.378;2024-03-08T13:07:19;10.30;92.20
64855;DHT22;51321;50.428;8.378;2024-03-08T13:10:00;10.50;92.60
64855;DHT22;51321;50.428;8.378;2024-03-08T13:12:42;10.60;92.60
64855;DHT22;51321;50.428;8.378;2024-03-08T13:15:22;10.90;91.90
64855;DHT22;51321;50.428;8.378;2024-03-08T13:18:03;10.90;92.00
64855;DHT22;51321;50.428;8.378;2024-03-08T13:20:45;10.40;92.40
64855;DHT22;51321;50.428;8.378;2024-03-08T13:23:28;10.40;92.90
64855;DHT22;51321;50.428;8.378;2024-03-08T13:26:10;10.50;92.80
64855;DHT22;51321;50.428;8.378;2024-03-08T13:28:53;10.40;92.50
64855;DHT22;51321;50.428;8.378;2024-03-08T13:31:34;10.20;92.80
64855;DHT22;51321;50.428;8.378;2024-03-08T13:34:15;10.20;93.30
64855;DHT22;51321;50.428;8.378;2024-03-08T13:36:56;10.20;92.70
64855;DHT22;51321;50.428;8.378;2024-03-08T13:39:39;10.20;92.80
64855;DHT22;51321;50.428;8.378;2024-03-08T13:42:23;10.20;92.70
64855;DHT22;51321;50.428;8.378;2024-03-08T13:45:07;10.10;93.10
64855;DHT22;51321;50.428;8.378;2024-03-08T13:47:50;10.20;92.80
64855;DHT22;51321;50.428;8.378;2024-03-08T13:50:31;10.40;93.00
64855;DHT22;51321;50.428;8.378;2024-03-08T13:53:12;10.30;93.00
64855;DHT22;51321;50.428;8.378;2024-03-08T13:55:53;10.40;92.70
64855;DHT22;51321;50.428;8.378;2024-03-08T13:58:33;10.40;92.20
64855;DHT22;51321;50.428;8.378;2024-03-08T14:01:16;10.40;92.40
64855;DHT22;51321;50.428;8.378;2024-03-08T14:03:56;10.40;92.40
64855;DHT22;51321;50.428;8.378;2024-03-08T14:06:37;10.30;92.40
64855;DHT22;51321;50.428;8.378;2024-03-08T14:09:17;10.00;92.90
64855;DHT22;51321;50.428;8.378;2024-03-08T14:11:58;9.90;92.80
64855;DHT22;51321;50.428;8.378;2024-03-08T14:14:40;9.90;93.20
64855;DHT22;51321;50.428;8.378;2024-03-08T14:17:22;9.90;92.90
64855;DHT22;51321;50.428;8.378;2024-03-08T14:20:04;10.00;93.40
64855;DHT22;51321;50.428;8.378;2024-03-08T14:22:45;9.90;93.00
64855;DHT22;51321;50.428;8.378;2024-03-08T14:25:27;9.90;93.60
64855;DHT22;51321;50.428;8.378;2024-03-08T14:28:09;10.10;93.10
64855;DHT22;51321;50.428;8.378;2024-03-08T14:30:51;10.10;93.00
64855;DHT22;51321;50.428;8.378;2024-03-08T14:33:33;10.10;93.10
64855;DHT22;51321;50.428;8.378;2024-03-08T14:36:14;10.20;93.00
64855;DHT22;51321;50.428;8.378;2024-03-08T14:38:56;10.10;93.60
64855;DHT22;51321;50.428;8.378;2024-03-08T14:41:37;10.10;93.40
64855;DHT22;51321;50.428;8.378;2024-03-08T14:44:17;10.00;93.20
64855;DHT22;51321;50.428;8.378;2024-03-08T14:46:58;10.00;93.40
64855;DHT22;51321;50.428;8.378;2024-03-08T14:49:40;9.90;93.40
64855;DHT22;51321;50.428;8.378;2024-03-08T14:52:21;9.80;93.40
64855;DHT22;51321;50.428;8.378;2024-03-08T14:55:08;9.80;93.80
64855;DHT22;51321;50.428;8.378;2024-03-08T14:57:53;9.90;94.00
64855;DHT22;51321;50.428;8.378;2024-03-08T15:00:34;9.90;93.40
64855;DHT22;51321;50.428;8.378;2024-03-08T15:03:14;9.80;93.70
64855;DHT22;51321;50.428;8.378;2024-03-08T15:05:57;9.80;93.80
64855;DHT22;51321;50.428;8.378;2024-03-08T15:08:38;9.70;94.00
64855;DHT22;51321;50.428;8.378;2024-03-08T15:11:19;9.70;94.10
64855;DHT22;51321;50.428;8.378;2024-03-08T15:14:04;9.70;94.10
64855;DHT22;51321;50.428;8.378;2024-03-08T15:16:49;9.70;93.90
64855;DHT22;51321;50.428;8.378;2024-03-08T15:19:30;9.70;94.10
64855;DHT22;51321;50.428;8.378;2024-03-08T15:22:13;9.70;94.10
64855;DHT22;51321;50.428;8.378;2024-03-08T15:24:55;9.60;94.10
64855;DHT22;51321;50.428;8.378;2024-03-08T15:27:37;9.60;94.10
64855;DHT22;51321;50.428;8.378;2024-03-08T15:30:18;9.60;94.20
64855;DHT22;51321;50.428;8.378;2024-03-08T15:33:01;9.60;94.00
64855;DHT22;51321;50.428;8.378;2024-03-08T15:35:42;9.60;94.00
64855;DHT22;51321;50.428;8.378;2024-03-08T15:38:29;9.60;94.00
64855;DHT22;51321;50.428;8.378;2024-03-08T15:41:10;9.50;93.90
64855;DHT22;51321;50.428;8.378;2024-03-08T15:43:52;9.60;94.30
64855;DHT22;51321;50.428;8.378;2024-03-08T15:46:34;9.60;94.40
64855;DHT22;51321;50.428;8.378;2024-03-08T15:49:15;9.70;94.30
64855;DHT22;51321;50.428;8.378;2024-03-08T15:51:58;9.60;93.90
64855;DHT22;51321;50.428;8.378;2024-03-08T15:54:40;9.60;94.10
64855;DHT22;51321;50.428;8.378;2024-03-08T15:57:23;9.60;94.40
64855;DHT22;51321;50.428;8.378;2024-03-08T16:00:04;9.50;94.30
64855;DHT22;51321;50.428;8.378;2024-03-08T16:02:52;9.60;93.90
64855;DHT22;51321;50.428;8.378;2024-03-08T16:05:32;9.60;94.20
64855;DHT22;51321;50.428;8.378;2024-03-08T16:08:15;9.60;94.10
64855;DHT22;51321;50.428;8.378;2024-03-08T16:10:58;9.60;94.10
64855;DHT22;51321;50.428;8.378;2024-03-08T16:13:39;9.70;94.20
64855;DHT22;51321;50.428;8.378;2024-03-08T16:16:20;9.60;93.90
64855;DHT22;51321;50.428;8.378;2024-03-08T16:19:01;9.50;94.20
64855;DHT22;51321;50.428;8.378;2024-03-08T16:21:44;9.60;94.40
64855;DHT22;51321;50.428;8.378;2024-03-08T16:24:25;9.50;94.40
64855;DHT22;51321;50.428;8.378;2024-03-08T16:27:07;9.40;94.40
64855;DHT22;51321;50.428;8.378;2024-03-08T16:29:47;9.40;94.30
64855;DHT22;51321;50.428;8.378;2024-03-08T16:32:30;9.40;94.30
64855;DHT22;51321;50.428;8.378;2024-03-08T16:35:10;9.40;94.10
64855;DHT22;51321;50.428;8.378;2024-03-08T16:37:51;9.40;93.90
64855;DHT22;51321;50.428;8.378;2024-03-08T16:40:32;9.40;94.10
64855;DHT22;51321;50.428;8.378;2024-03-08T16:43:14;9.40;93.90
64855;DHT22;51321;50.428;8.378;2024-03-08T16:45:54;9.30;94.70
64855;DHT22;51321;50.428;8.378;2024-03-08T16:48:38;9.30;94.20
64855;DHT22;51321;50.428;8.378;2024-03-08T16:51:18;9.20;94.10
64855;DHT22;51321;50.428;8.378;2024-03-08T16:53:59;9.10;94.30
64855;DHT22;51321;50.428;8.378;2024-03-08T16:56:41;9.10;94.30
64855;DHT22;51321;50.428;8.378;2024-03-08T16:59:25;9.00;94.70
64855;DHT22;51321;50.428;8.378;2024-03-08T17:02:06;8.90;94.80
64855;DHT22;51321;50.428;8.378;2024-03-08T17:04:49;8.90;94.50
64855;DHT22;51321;50.428;8.378;2024-03-08T17:07:30;9.00;94.50
64855;DHT22;51321;50.428;8.378;2024-03-08T17:10:11;8.90;94.70
64855;DHT22;51321;50.428;8.378;2024-03-08T17:12:56;8.80;94.80
64855;DHT22;51321;50.428;8.378;2024-03-08T17:15:39;8.80;95.00